createdAt,value
2022-12-03T00:02:21.828Z,10.45
2022-12-03T00:04:48.760Z,11.18
2022-12-03T00:07:15.538Z,10.07
2022-12-03T00:09:42.893Z,11.00
2022-12-03T00:12:09.778Z,10.98
2022-12-03T00:14:41.228Z,10.90
2022-12-03T00:17:11.163Z,10.43
2022-12-03T00:19:37.961Z,10.80
2022-12-03T00:22:04.731Z,12.75
2022-12-03T00:24:31.593Z,11.50
2022-12-03T00:26:58.397Z,10.93
2022-12-03T00:29:25.197Z,11.35
2022-12-03T00:31:52.024Z,11.00
2022-12-03T00:34:18.845Z,12.52
2022-12-03T00:36:45.657Z,11.45
2022-12-03T00:39:12.573Z,11.93
2022-12-03T00:41:39.368Z,11.77
2022-12-03T00:44:06.302Z,12.10
2022-12-03T00:46:33.278Z,11.32
2022-12-03T00:49:00.142Z,11.75
2022-12-03T00:51:26.941Z,11.85
2022-12-03T00:53:53.799Z,11.60
2022-12-03T00:56:20.609Z,11.23
2022-12-03T00:58:47.456Z,11.10
2022-12-03T01:01:14.425Z,11.50
2022-12-03T01:03:41.297Z,11.80
2022-12-03T01:06:08.239Z,11.00
2022-12-03T01:08:35.160Z,12.00
2022-12-03T01:11:02.034Z,10.82
2022-12-03T01:13:28.932Z,10.68
2022-12-03T01:15:55.826Z,11.40
2022-12-03T01:18:22.657Z,12.20
2022-12-03T01:20:49.457Z,11.75
2022-12-03T01:23:16.262Z,10.88
2022-12-03T01:25:43.083Z,11.05
2022-12-03T01:28:11.556Z,10.15
2022-12-03T01:30:58.396Z,11.02
2022-12-03T01:33:25.284Z,10.32
2022-12-03T01:35:52.082Z,11.80
2022-12-03T01:38:18.950Z,11.45
2022-12-03T01:40:45.906Z,11.38
2022-12-03T01:43:12.725Z,12.55
2022-12-03T01:45:39.592Z,11.57
2022-12-03T01:48:06.662Z,11.25
2022-12-03T01:50:33.970Z,11.65
2022-12-03T01:53:03.156Z,10.48
2022-12-03T01:55:30.264Z,10.52
2022-12-03T01:58:01.961Z,11.18
2022-12-03T02:00:29.871Z,11.48
2022-12-03T02:03:00.672Z,10.70
2022-12-03T02:05:30.400Z,10.82
2022-12-03T02:07:58.058Z,11.27
2022-12-03T02:10:32.555Z,10.40
2022-12-03T02:13:08.954Z,10.32
2022-12-03T02:15:38.488Z,10.43
2022-12-03T02:18:05.555Z,10.57
2022-12-03T02:20:35.960Z,10.80
2022-12-03T02:23:12.056Z,10.25
2022-12-03T02:25:39.113Z,9.57
2022-12-03T02:28:08.706Z,9.95
2022-12-03T02:30:36.500Z,10.07
2022-12-03T02:33:03.959Z,9.85
2022-12-03T02:35:34.493Z,9.38
2022-12-03T02:38:23.208Z,9.35
2022-12-03T02:40:54.469Z,7.93
2022-12-03T02:43:22.535Z,8.27
2022-12-03T02:45:55.584Z,7.78
2022-12-03T02:48:27.516Z,8.73
2022-12-03T02:50:57.587Z,8.43
2022-12-03T02:53:28.173Z,9.15
2022-12-03T02:55:56.763Z,8.38
2022-12-03T02:58:25.545Z,8.10
2022-12-03T03:00:54.059Z,8.23
2022-12-03T03:03:22.314Z,7.15
2022-12-03T03:05:49.884Z,7.75
2022-12-03T03:08:17.800Z,6.90
2022-12-03T03:10:46.664Z,6.82
2022-12-03T03:13:16.549Z,6.65
2022-12-03T03:15:43.825Z,8.77
2022-12-03T03:18:12.506Z,8.13
2022-12-03T03:20:39.908Z,10.57
2022-12-03T03:23:20.571Z,8.18
2022-12-03T03:25:51.833Z,8.15
2022-12-03T03:28:19.103Z,7.32
2022-12-03T03:30:46.689Z,7.35
2022-12-03T03:33:15.704Z,6.57
2022-12-03T03:35:43.600Z,7.35
2022-12-03T03:38:11.374Z,7.22
2022-12-03T03:40:39.137Z,7.22
2022-12-03T03:43:07.019Z,6.75
2022-12-03T03:45:34.300Z,7.65
2022-12-03T03:48:01.434Z,6.72
2022-12-03T03:50:30.156Z,7.35
2022-12-03T03:52:57.727Z,7.47
2022-12-03T03:55:24.840Z,7.47
2022-12-03T03:57:51.698Z,8.48
2022-12-03T04:00:19.094Z,7.80
2022-12-03T04:02:46.298Z,6.70
2022-12-03T04:05:19.563Z,7.22
2022-12-03T04:07:47.021Z,7.40
2022-12-03T04:10:33.705Z,6.75
2022-12-03T04:13:00.969Z,7.00
2022-12-03T04:15:28.278Z,6.65
2022-12-03T04:18:14.168Z,7.15
2022-12-03T04:20:41.006Z,6.60
2022-12-03T04:23:07.789Z,6.38
2022-12-03T04:25:53.244Z,6.95
2022-12-03T04:28:38.770Z,11.27
2022-12-03T04:31:25.917Z,9.55
2022-12-03T04:34:25.149Z,8.68
2022-12-03T04:36:52.070Z,7.00
2022-12-03T04:39:19.098Z,6.97
2022-12-03T04:41:45.932Z,7.05
2022-12-03T04:44:31.624Z,6.72
2022-12-03T04:46:58.623Z,6.80
2022-12-03T04:49:25.778Z,8.65
2022-12-03T04:51:52.614Z,9.75
2022-12-03T04:54:19.573Z,7.75
2022-12-03T04:56:46.486Z,7.75
2022-12-03T04:59:16.319Z,8.02
2022-12-03T05:01:44.171Z,6.75
2022-12-03T05:04:12.284Z,8.82
2022-12-03T05:06:39.345Z,7.38
2022-12-03T05:09:06.305Z,6.43
2022-12-03T05:11:33.131Z,8.15
2022-12-03T05:13:59.998Z,6.68
2022-12-03T05:16:27.006Z,7.10
2022-12-03T05:18:53.881Z,5.28
2022-12-03T05:21:20.724Z,4.97
2022-12-03T05:23:47.684Z,4.70
2022-12-03T05:26:14.520Z,4.53
2022-12-03T05:28:41.571Z,4.90
2022-12-03T05:31:08.689Z,4.20
2022-12-03T05:33:39.466Z,4.70
2022-12-03T05:36:09.624Z,6.85
2022-12-03T05:38:36.462Z,4.88
2022-12-03T05:41:23.664Z,4.85
2022-12-03T05:43:50.482Z,4.22
2022-12-03T05:46:17.400Z,4.10
2022-12-03T05:48:44.783Z,4.10
2022-12-03T05:51:11.740Z,4.22
2022-12-03T05:53:38.584Z,4.53
2022-12-03T05:56:05.779Z,5.28
2022-12-03T05:58:32.744Z,6.68
2022-12-03T06:00:59.553Z,8.10
2022-12-03T06:03:27.087Z,5.38
2022-12-03T06:05:54.009Z,4.80
2022-12-03T06:08:20.803Z,5.00
2022-12-03T06:10:47.724Z,5.88
2022-12-03T06:13:14.495Z,5.13
2022-12-03T06:15:43.960Z,6.32
2022-12-03T06:18:11.753Z,5.50
2022-12-03T06:20:38.785Z,5.53
2022-12-03T06:23:05.574Z,4.32
2022-12-03T06:25:32.369Z,4.40
2022-12-03T06:27:59.168Z,4.03
2022-12-03T06:30:26.060Z,3.58
2022-12-03T06:32:52.948Z,5.13
2022-12-03T06:35:19.834Z,4.97
2022-12-03T06:37:46.636Z,4.20
2022-12-03T06:40:13.821Z,4.18
2022-12-03T06:42:40.613Z,3.72
2022-12-03T06:45:07.619Z,4.05
2022-12-03T06:47:34.586Z,4.18
2022-12-03T06:50:01.408Z,4.60
2022-12-03T06:52:28.237Z,4.30
2022-12-03T06:54:55.278Z,4.07
2022-12-03T06:57:22.331Z,4.82
2022-12-03T06:59:49.137Z,4.60
2022-12-03T07:02:15.946Z,4.25
2022-12-03T07:04:46.295Z,4.18
2022-12-03T07:07:13.775Z,3.90
2022-12-03T07:09:41.220Z,4.20
2022-12-03T07:12:08.169Z,8.32
2022-12-03T07:14:35.065Z,6.70
2022-12-03T07:17:02.072Z,5.32
2022-12-03T07:19:32.549Z,5.10
2022-12-03T07:22:00.196Z,4.55
2022-12-03T07:24:27.121Z,4.25
2022-12-03T07:26:53.916Z,3.97
2022-12-03T07:29:20.795Z,3.92
2022-12-03T07:31:47.689Z,3.80
2022-12-03T07:34:14.564Z,3.65
2022-12-03T07:36:41.372Z,4.10
2022-12-03T07:39:08.213Z,3.70
2022-12-03T07:41:35.005Z,4.35
2022-12-03T07:44:01.852Z,4.18
2022-12-03T07:46:28.733Z,4.47
2022-12-03T07:48:55.627Z,4.88
2022-12-03T07:51:25.055Z,5.05
2022-12-03T07:53:54.560Z,4.30
2022-12-03T07:56:21.445Z,3.80
2022-12-03T07:58:48.280Z,4.13
2022-12-03T08:01:15.136Z,3.85
2022-12-03T08:03:43.080Z,4.20
2022-12-03T08:06:10.021Z,4.20
2022-12-03T08:08:36.829Z,4.20
2022-12-03T08:11:03.833Z,4.20
2022-12-03T08:13:30.870Z,4.10
2022-12-03T08:16:01.087Z,4.13
2022-12-03T08:18:28.645Z,4.22
2022-12-03T08:20:55.462Z,4.50
2022-12-03T08:23:26.457Z,4.55
2022-12-03T08:25:53.712Z,4.75
2022-12-03T08:28:28.649Z,4.75
2022-12-03T08:31:08.477Z,5.45
2022-12-03T08:33:36.918Z,10.38
2022-12-03T08:36:11.392Z,26.50
2022-12-03T08:38:38.320Z,19.20
2022-12-03T08:41:15.784Z,12.07
2022-12-03T08:43:43.980Z,8.98
2022-12-03T08:46:19.617Z,8.05
2022-12-03T08:48:49.135Z,7.43
2022-12-03T08:51:25.576Z,7.38
2022-12-03T08:54:12.819Z,11.07
2022-12-03T08:56:39.669Z,11.23
2022-12-03T08:59:35.718Z,11.40
2022-12-03T09:02:02.714Z,7.90
2022-12-03T09:04:31.270Z,7.68
2022-12-03T09:06:59.107Z,8.32
2022-12-03T09:09:26.213Z,8.32
2022-12-03T09:11:53.965Z,7.47
2022-12-03T09:14:22.871Z,9.32
2022-12-03T09:16:55.468Z,35.13
2022-12-03T09:19:24.668Z,41.25
2022-12-03T09:21:52.900Z,40.88
2022-12-03T09:24:20.149Z,13.20
2022-12-03T09:26:48.018Z,13.43
2022-12-03T09:29:15.069Z,8.95
2022-12-03T09:31:42.382Z,6.07
2022-12-03T09:34:09.440Z,5.35
2022-12-03T09:36:36.270Z,4.45
2022-12-03T09:39:03.164Z,4.00
2022-12-03T09:41:30.105Z,3.42
2022-12-03T09:44:05.527Z,3.92
2022-12-03T09:46:34.806Z,3.75
2022-12-03T09:49:02.962Z,5.05
2022-12-03T09:51:35.467Z,3.92
2022-12-03T09:54:04.904Z,3.88
2022-12-03T09:56:32.377Z,4.13
2022-12-03T09:58:59.601Z,3.55
2022-12-03T10:01:30.068Z,3.35
2022-12-03T10:03:58.485Z,3.47
2022-12-03T10:06:25.440Z,3.28
2022-12-03T10:08:54.991Z,3.22
2022-12-03T10:11:24.563Z,3.40
2022-12-03T10:13:52.609Z,3.25
2022-12-03T10:16:21.028Z,3.60
2022-12-03T10:18:52.116Z,3.50
2022-12-03T10:21:39.472Z,2.70
2022-12-03T10:24:26.069Z,3.10
2022-12-03T10:26:56.380Z,2.38
2022-12-03T10:29:33.583Z,2.40
2022-12-03T10:32:08.037Z,2.10
2022-12-03T10:34:40.079Z,2.05
2022-12-03T10:37:21.534Z,2.10
2022-12-03T10:39:56.189Z,2.35
2022-12-03T10:42:25.431Z,2.50
2022-12-03T10:45:27.462Z,2.00
2022-12-03T10:48:12.524Z,1.60
2022-12-03T10:50:52.083Z,1.90
2022-12-03T10:53:20.596Z,2.00
2022-12-03T10:55:51.276Z,1.92
2022-12-03T10:58:24.808Z,2.00
2022-12-03T11:00:54.415Z,1.98
2022-12-03T11:03:29.210Z,2.00
2022-12-03T11:05:57.480Z,2.25
2022-12-03T11:08:27.306Z,1.90
2022-12-03T11:11:06.426Z,1.90
2022-12-03T11:13:33.257Z,1.98
2022-12-03T11:16:04.754Z,1.83
2022-12-03T11:18:37.652Z,1.95
2022-12-03T11:21:06.582Z,2.17
2022-12-03T11:23:45.676Z,1.75
2022-12-03T11:26:37.746Z,1.77
2022-12-03T11:29:13.304Z,1.92
2022-12-03T11:31:47.276Z,2.10
2022-12-03T11:34:20.543Z,1.88
2022-12-03T11:37:12.238Z,2.00
2022-12-03T11:39:45.018Z,1.90
2022-12-03T11:42:26.588Z,2.00
2022-12-03T11:45:05.555Z,2.17
2022-12-03T11:47:34.153Z,2.10
2022-12-03T11:50:01.235Z,2.30
2022-12-03T11:52:32.044Z,1.90
2022-12-03T11:55:02.968Z,1.90
2022-12-03T11:57:36.491Z,2.08
2022-12-03T12:00:09.447Z,2.20
2022-12-03T12:02:36.524Z,2.30
2022-12-03T12:05:16.737Z,1.98
2022-12-03T12:07:45.969Z,2.00
2022-12-03T12:10:12.882Z,2.15
2022-12-03T12:12:54.301Z,2.03
2022-12-03T12:15:40.356Z,2.05
2022-12-03T12:18:41.416Z,1.80
2022-12-03T12:21:42.483Z,1.65
2022-12-03T12:24:40.697Z,2.00
2022-12-03T12:27:20.498Z,1.80
2022-12-03T12:29:56.464Z,1.90
2022-12-03T12:32:32.285Z,1.80
2022-12-03T12:35:19.713Z,1.92
2022-12-03T12:37:59.158Z,1.60
2022-12-03T12:40:29.680Z,2.10
2022-12-03T12:43:26.830Z,2.00
2022-12-03T12:45:56.443Z,2.17
2022-12-03T12:48:36.484Z,2.00
2022-12-03T12:51:21.533Z,1.95
2022-12-03T12:53:49.904Z,2.10
2022-12-03T12:56:30.345Z,1.83
2022-12-03T12:59:09.415Z,1.83
2022-12-03T13:01:36.659Z,1.95
2022-12-03T13:04:15.766Z,2.00
2022-12-03T13:06:43.154Z,1.70
2022-12-03T13:09:21.125Z,1.52
2022-12-03T13:11:59.121Z,1.80
2022-12-03T13:14:36.934Z,1.83
2022-12-03T13:17:19.711Z,1.60
2022-12-03T13:19:50.702Z,1.83
2022-12-03T13:22:22.804Z,1.42
2022-12-03T13:24:56.200Z,1.77
2022-12-03T13:27:29.566Z,1.70
2022-12-03T13:30:01.236Z,1.80
2022-12-03T13:32:31.307Z,1.67
2022-12-03T13:35:24.176Z,1.77
2022-12-03T13:37:50.979Z,1.85
2022-12-03T13:40:26.540Z,1.70
2022-12-03T13:42:54.385Z,1.95
2022-12-03T13:45:22.409Z,2.05
2022-12-03T13:47:57.731Z,2.25
2022-12-03T13:50:27.591Z,2.30
2022-12-03T13:52:55.099Z,2.20
2022-12-03T13:55:30.172Z,2.13
2022-12-03T13:57:57.920Z,2.47
2022-12-03T14:00:24.861Z,2.50
2022-12-03T14:02:51.904Z,2.42
2022-12-03T14:05:19.097Z,2.33
2022-12-03T14:07:45.947Z,2.70
2022-12-03T14:10:13.351Z,2.60
2022-12-03T14:12:40.223Z,2.20
2022-12-03T14:15:08.589Z,2.20
2022-12-03T14:17:35.507Z,1.90
2022-12-03T14:20:04.468Z,1.80
2022-12-03T14:22:31.415Z,2.20
2022-12-03T14:24:58.500Z,2.08
2022-12-03T14:27:25.451Z,2.05
2022-12-03T14:29:52.746Z,1.98
2022-12-03T14:32:19.847Z,1.70
2022-12-03T14:34:46.653Z,1.73
2022-12-03T14:37:13.474Z,2.10
2022-12-03T14:39:40.440Z,2.10
2022-12-03T14:42:13.430Z,2.33
2022-12-03T14:44:45.431Z,2.30
2022-12-03T14:47:13.705Z,2.80
2022-12-03T14:49:40.743Z,2.83
2022-12-03T14:52:11.943Z,2.50
2022-12-03T14:54:41.751Z,2.17
2022-12-03T14:57:09.215Z,2.50
2022-12-03T14:59:35.993Z,2.20
2022-12-03T15:02:02.991Z,2.58
2022-12-03T15:04:29.881Z,2.33
2022-12-03T15:06:56.770Z,2.40
2022-12-03T15:09:23.654Z,2.38
2022-12-03T15:11:50.521Z,2.20
2022-12-03T15:14:17.347Z,2.20
2022-12-03T15:16:44.346Z,2.22
2022-12-03T15:19:11.272Z,2.05
2022-12-03T15:21:38.121Z,2.50
2022-12-03T15:24:05.096Z,2.42
2022-12-03T15:26:31.888Z,2.78
2022-12-03T15:28:58.741Z,2.47
2022-12-03T15:31:25.566Z,3.13
2022-12-03T15:33:52.541Z,2.50
2022-12-03T15:36:19.438Z,2.78
2022-12-03T15:38:46.281Z,3.20
2022-12-03T15:41:24.832Z,3.15
2022-12-03T15:43:55.384Z,3.38
2022-12-03T15:46:22.307Z,4.15
2022-12-03T15:48:49.534Z,4.28
2022-12-03T15:51:16.454Z,4.00
2022-12-03T15:53:43.480Z,4.28
2022-12-03T15:56:12.136Z,3.97
2022-12-03T15:58:39.940Z,4.20
2022-12-03T16:01:07.473Z,3.95
2022-12-03T16:03:34.558Z,4.80
2022-12-03T16:06:01.529Z,4.72
2022-12-03T16:08:28.402Z,4.75
2022-12-03T16:10:55.203Z,4.32
2022-12-03T16:13:22.063Z,4.13
2022-12-03T16:15:49.007Z,4.90
2022-12-03T16:18:15.873Z,5.28
2022-12-03T16:20:42.753Z,4.53
2022-12-03T16:23:09.714Z,5.28
2022-12-03T16:25:36.567Z,4.63
2022-12-03T16:28:03.441Z,4.70
2022-12-03T16:30:30.297Z,4.88
2022-12-03T16:32:57.231Z,4.47
2022-12-03T16:35:24.086Z,5.22
2022-12-03T16:37:50.879Z,4.82
2022-12-03T16:40:18.001Z,4.70
2022-12-03T16:42:44.892Z,4.53
2022-12-03T16:45:31.833Z,4.97
2022-12-03T16:47:58.933Z,4.90
2022-12-03T16:50:29.992Z,5.43
2022-12-03T16:52:57.559Z,5.13
2022-12-03T16:55:24.697Z,5.35
2022-12-03T16:57:51.574Z,4.82
2022-12-03T17:00:18.737Z,4.97
2022-12-03T17:02:45.584Z,5.22
2022-12-03T17:05:12.521Z,5.65
2022-12-03T17:07:39.494Z,6.07
2022-12-03T17:10:06.948Z,5.80
2022-12-03T17:13:07.077Z,5.90
2022-12-03T17:15:20.532Z,5.70
2022-12-03T17:17:47.319Z,5.40
2022-12-03T17:20:14.819Z,5.57
2022-12-03T17:22:42.055Z,5.22
2022-12-03T17:25:10.072Z,5.03
2022-12-03T17:27:42.053Z,4.85
2022-12-03T17:30:12.100Z,4.90
2022-12-03T17:32:39.009Z,4.95
2022-12-03T17:35:06.319Z,4.90
2022-12-03T17:37:33.313Z,4.78
2022-12-03T17:40:00.397Z,4.85
2022-12-03T17:42:27.274Z,5.25
2022-12-03T17:44:54.129Z,4.43
2022-12-03T17:47:21.012Z,4.78
2022-12-03T17:49:47.807Z,4.13
2022-12-03T17:52:14.735Z,4.53
2022-12-03T17:55:08.384Z,3.67
2022-12-03T17:57:28.448Z,3.45
2022-12-03T17:59:55.646Z,3.15
2022-12-03T18:02:22.868Z,3.25
2022-12-03T18:04:49.713Z,4.18
2022-12-03T18:07:16.511Z,5.63
2022-12-03T18:09:43.320Z,5.70
2022-12-03T18:12:10.121Z,7.20
2022-12-03T18:14:36.950Z,10.95
2022-12-03T18:17:03.796Z,26.40
2022-12-03T18:19:30.612Z,41.45
2022-12-03T18:21:57.468Z,42.70
2022-12-03T18:24:25.092Z,33.72
2022-12-03T18:26:51.902Z,43.33
2022-12-03T18:29:18.759Z,47.80
2022-12-03T18:31:45.785Z,49.38
2022-12-03T18:34:12.667Z,50.83
2022-12-03T18:36:39.627Z,40.20
2022-12-03T18:39:12.324Z,23.92
2022-12-03T18:41:39.267Z,16.60
2022-12-03T18:44:09.785Z,11.40
2022-12-03T18:46:52.916Z,16.92
2022-12-03T18:51:48.517Z,16.45
2022-12-03T18:54:15.865Z,13.82
2022-12-03T18:56:42.870Z,14.20
2022-12-03T18:59:09.752Z,18.45
2022-12-03T19:01:36.739Z,17.67
2022-12-03T19:04:03.831Z,14.82
2022-12-03T19:06:30.737Z,13.50
2022-12-03T19:08:58.081Z,13.02
2022-12-03T19:11:25.217Z,11.25
2022-12-03T19:13:52.269Z,10.38
2022-12-03T19:16:19.316Z,9.60
2022-12-03T19:18:46.294Z,11.25
2022-12-03T19:21:15.691Z,13.65
2022-12-03T19:24:04.322Z,12.20
2022-12-03T19:26:30.695Z,12.68
2022-12-03T19:28:57.781Z,12.35
2022-12-03T19:31:24.680Z,13.15
2022-12-03T19:33:52.043Z,12.68
2022-12-03T19:36:30.085Z,12.88
2022-12-03T19:38:58.856Z,12.30
2022-12-03T19:41:28.010Z,11.82
2022-12-03T19:43:56.200Z,11.90
2022-12-03T19:46:24.524Z,11.18
2022-12-03T19:48:51.842Z,11.57
2022-12-03T19:51:35.423Z,12.07
2022-12-03T19:54:07.718Z,18.10
2022-12-03T19:56:34.957Z,14.82
2022-12-03T19:59:02.290Z,13.40
2022-12-03T20:01:32.291Z,11.38
2022-12-03T20:04:00.537Z,10.68
2022-12-03T20:06:30.108Z,11.07
2022-12-03T20:08:58.917Z,11.43
2022-12-03T20:11:28.797Z,12.70
2022-12-03T20:13:57.866Z,14.88
2022-12-03T20:16:25.617Z,15.13
2022-12-03T20:18:57.228Z,14.30
2022-12-03T20:21:24.002Z,14.90
2022-12-03T20:23:50.861Z,15.32
2022-12-03T20:26:19.805Z,14.95
2022-12-03T20:28:48.225Z,14.70
2022-12-03T20:31:18.338Z,14.90
2022-12-03T20:33:51.301Z,14.77
2022-12-03T20:36:20.730Z,13.88
2022-12-03T20:38:47.635Z,14.60
2022-12-03T20:41:21.450Z,14.35
2022-12-03T20:43:48.926Z,13.32
2022-12-03T20:46:19.265Z,12.63
2022-12-03T20:48:46.546Z,13.07
2022-12-03T20:51:15.950Z,13.60
2022-12-03T20:53:44.368Z,12.60
2022-12-03T20:56:15.917Z,12.70
2022-12-03T20:58:42.705Z,13.00
2022-12-03T21:01:18.140Z,13.35
2022-12-03T21:03:46.011Z,13.15
2022-12-03T21:06:13.672Z,13.38
2022-12-03T21:08:43.073Z,10.18
2022-12-03T21:11:16.889Z,9.35
2022-12-03T21:13:44.308Z,8.50
2022-12-03T21:16:18.484Z,6.70
2022-12-03T21:18:45.748Z,5.57
2022-12-03T21:21:15.171Z,4.72
2022-12-03T21:23:42.788Z,4.57
2022-12-03T21:26:12.205Z,4.07
2022-12-03T21:28:40.852Z,4.47
2022-12-03T21:31:10.727Z,4.47
2022-12-03T21:33:38.053Z,3.80
2022-12-03T21:36:05.969Z,4.20
2022-12-03T21:38:34.011Z,3.97
2022-12-03T21:41:01.964Z,3.83
2022-12-03T21:43:29.437Z,4.05
2022-12-03T21:45:56.610Z,4.20
2022-12-03T21:48:23.576Z,3.90
2022-12-03T21:51:08.097Z,4.28
2022-12-03T21:53:41.915Z,4.30
2022-12-03T21:56:13.417Z,4.00
2022-12-03T21:58:40.641Z,4.40
2022-12-03T22:01:18.994Z,4.90
2022-12-03T22:03:45.944Z,4.07
2022-12-03T22:06:12.961Z,4.60
2022-12-03T22:08:40.560Z,4.72
2022-12-03T22:11:20.280Z,4.78
2022-12-03T22:13:47.433Z,4.75
2022-12-03T22:16:17.101Z,4.53
2022-12-03T22:18:44.356Z,4.50
2022-12-03T22:21:16.329Z,4.35
2022-12-03T22:23:43.771Z,4.75
2022-12-03T22:26:16.357Z,4.18
2022-12-03T22:28:45.186Z,3.00
2022-12-03T22:31:13.119Z,3.00
2022-12-03T22:33:40.753Z,3.00
2022-12-03T22:36:14.854Z,3.00
2022-12-03T22:38:46.627Z,3.17
2022-12-03T22:41:14.452Z,3.70
2022-12-03T22:43:41.369Z,4.40
2022-12-03T22:46:12.926Z,3.40
2022-12-03T22:48:41.251Z,3.53
2022-12-03T22:51:15.462Z,3.33
2022-12-03T22:53:42.301Z,3.05
2022-12-03T22:56:09.373Z,2.80
2022-12-03T22:58:38.781Z,3.00
2022-12-03T23:01:06.430Z,2.70
2022-12-03T23:03:33.438Z,3.25
2022-12-03T23:06:00.298Z,2.70
2022-12-03T23:08:27.208Z,2.85
2022-12-03T23:10:54.014Z,2.83
2022-12-03T23:13:21.226Z,2.60
2022-12-03T23:15:51.056Z,2.35
2022-12-03T23:18:18.933Z,2.63
2022-12-03T23:20:48.717Z,3.03
2022-12-03T23:23:16.807Z,2.58
2022-12-03T23:25:44.136Z,2.78
2022-12-03T23:28:12.536Z,2.70
2022-12-03T23:30:40.201Z,2.78
2022-12-03T23:33:07.205Z,2.80
2022-12-03T23:35:34.376Z,2.95
2022-12-03T23:38:01.279Z,2.63
2022-12-03T23:40:28.189Z,3.15
2022-12-03T23:42:55.169Z,3.13
2022-12-03T23:45:22.277Z,3.50
2022-12-03T23:47:52.349Z,2.92
2022-12-03T23:50:21.992Z,2.92
2022-12-03T23:52:48.801Z,2.90
2022-12-03T23:55:15.598Z,3.10
2022-12-03T23:57:42.430Z,2.88
